Terminal Aerodrome Forecast
Issued by NWS

Home | Current Version | Previous Version | Text Only | Print | Product List | Glossary On
Versions: 1 2 3 4 5 6 7 8 9 10 11 12 13 14 15 16 17 18 19 20 21
000
FTUS43 KIND 031900 AAA
TAFBMG
TAF AMD
KBMG 031949Z 0320/0418 22011KT 2SM -RA BR OVC005 WS015/23045KT
     FM032200 25010KT 1 1/2SM -RA BR OVC005
     FM040200 27010KT 1 1/2SM -RA BR OVC005
     FM040500 31010KT 2SM -RA BR OVC005
     FM040800 33009KT 4SM -RASNPL OVC010
     FM041200 34010KT 4SM -SN OVC010=

USA.gov is the U.S. government's official web portal to all federal, state and local government web resources and services.